Time;durP1;ratioP1;P1;durP2;ratioP2;P2;SDS_P1;SDS_P2;PMS_P1;PMS_P2;Temp;Humidity;BMP_temperature;BMP_pressure;BME280_temperature;BME280_humidity;BME280_pressure;Samples;Min_cycle;Max_cycle;Signal;HPM_P1;HPM_P2
2023/08/14 00:00:42;;;;;;;7.60;6.40;;;;;;;18.38;76.82;97561.34;107755;1242;97239;-75
2023/08/14 00:03:28;;;;;;;8.20;7.00;;;;;;;18.40;76.91;97556.65;107739;1243;97660;-76
2023/08/14 00:05:54;;;;;;;8.80;7.00;;;;;;;18.33;76.81;97554.30;107659;1237;96562;-76
2023/08/14 00:08:21;;;;;;;8.70;6.90;;;;;;;18.24;77.02;97557.80;107810;1249;96565;-76
2023/08/14 00:10:47;;;;;;;8.20;6.50;;;;;;;18.24;77.09;97558.89;107626;1246;97737;-84
2023/08/14 00:13:13;;;;;;;8.50;6.60;;;;;;;18.21;77.16;97561.60;107780;1239;96996;-85
2023/08/14 00:15:39;;;;;;;7.40;6.70;;;;;;;18.18;77.23;97558.56;107788;1246;97785;-84
2023/08/14 00:18:06;;;;;;;8.50;6.40;;;;;;;18.14;77.44;97557.19;107815;1240;96579;-84
2023/08/14 00:20:32;;;;;;;9.60;7.10;;;;;;;18.08;77.46;97558.50;107848;1239;96518;-84
2023/08/14 00:22:59;;;;;;;8.40;6.50;;;;;;;18.03;77.59;97561.61;107773;1242;97788;-85
2023/08/14 00:25:25;;;;;;;7.20;6.10;;;;;;;18.01;77.79;97566.60;107791;1241;97829;-84
2023/08/14 00:27:51;;;;;;;7.80;7.00;;;;;;;17.94;77.67;97564.34;107797;1235;97832;-84
2023/08/14 00:30:18;;;;;;;9.60;7.20;;;;;;;17.89;77.95;97565.52;107898;1240;97816;-77
2023/08/14 00:32:44;;;;;;;10.80;7.20;;;;;;;17.84;78.40;97563.25;107770;1239;97074;-77
2023/08/14 00:35:10;;;;;;;9.70;7.40;;;;;;;17.80;78.47;97563.77;107826;1247;96627;-77
2023/08/14 00:37:44;;;;;;;7.50;6.90;;;;;;;17.74;78.41;97561.79;107815;1241;96864;-77
2023/08/14 00:40:12;;;;;;;7.80;6.60;;;;;;;17.69;78.66;97561.78;107775;1239;99578;-77
2023/08/14 00:42:39;;;;;;;13.10;7.30;;;;;;;17.69;78.75;97566.80;107865;1240;96993;-78
2023/08/14 00:45:09;;;;;;;8.20;6.90;;;;;;;17.68;78.86;97568.64;107284;1238;96543;-77
2023/08/14 00:47:37;;;;;;;8.20;7.00;;;;;;;17.70;78.88;97570.46;107227;1243;102230;-77
2023/08/14 00:50:05;;;;;;;7.90;7.10;;;;;;;17.73;78.95;97570.80;107809;1248;101477;-84
2023/08/14 00:52:35;;;;;;;7.80;7.10;;;;;;;17.71;78.94;97572.67;107642;1241;98859;-83
2023/08/14 00:55:07;;;;;;;7.70;7.00;;;;;;;17.66;79.25;97578.88;107771;1243;97256;-84
2023/08/14 00:57:35;;;;;;;10.10;7.40;;;;;;;17.60;79.24;97583.92;107325;1244;97690;-84
2023/08/14 01:00:03;;;;;;;8.70;7.70;;;;;;;17.59;79.10;97591.33;107227;1249;100870;-83
2023/08/14 01:02:31;;;;;;;10.10;7.00;;;;;;;17.63;79.10;97592.27;107188;1244;100301;-83
2023/08/14 01:04:57;;;;;;;10.10;7.00;;;;;;;17.63;79.05;97595.53;107513;1246;96950;-83
2023/08/14 01:07:24;;;;;;;11.60;7.00;;;;;;;17.62;79.05;97592.90;107670;1240;97737;-84
2023/08/14 01:09:51;;;;;;;8.40;7.20;;;;;;;17.59;78.95;97596.62;107767;1240;96655;-77
2023/08/14 01:12:37;;;;;;;9.20;7.10;;;;;;;17.61;79.15;97602.92;107045;1250;98350;-77
2023/08/14 01:15:11;;;;;;;9.50;7.30;;;;;;;17.58;79.09;97603.32;107817;1240;99964;-77
2023/08/14 01:17:40;;;;;;;11.90;7.00;;;;;;;17.57;79.10;97600.84;107803;1240;96546;-77
2023/08/14 01:20:08;;;;;;;7.90;7.10;;;;;;;17.57;78.98;97601.22;107329;1250;97180;-77
2023/08/14 01:22:49;;;;;;;10.70;7.60;;;;;;;17.57;79.22;97604.02;107861;1248;102382;-77
2023/08/14 01:25:21;;;;;;;7.40;6.70;;;;;;;17.53;79.26;97608.03;107826;1246;101445;-77
2023/08/14 01:27:48;;;;;;;9.50;6.90;;;;;;;17.48;79.35;97607.21;107794;1243;98836;-77
2023/08/14 01:30:14;;;;;;;7.40;6.70;;;;;;;17.45;79.35;97607.48;107072;1249;97489;-77
2023/08/14 01:32:40;;;;;;;10.20;7.50;;;;;;;17.47;79.47;97612.16;107868;1250;96553;-77
2023/08/14 01:35:07;;;;;;;10.50;6.90;;;;;;;17.49;79.51;97615.36;107863;1236;96574;-77
2023/08/14 01:37:54;;;;;;;7.90;6.90;;;;;;;17.54;79.65;97618.80;107782;1241;100100;-77
2023/08/14 01:40:40;;;;;;;7.80;7.00;;;;;;;17.53;79.49;97622.55;107755;1250;96558;-77
2023/08/14 01:43:25;;;;;;;9.60;7.10;;;;;;;17.56;79.52;97624.63;107322;1244;97116;-77
2023/08/14 01:45:55;;;;;;;9.00;6.90;;;;;;;17.59;79.58;97619.86;107306;1246;102451;-78
2023/08/14 01:48:23;;;;;;;9.60;6.80;;;;;;;17.56;79.61;97620.52;106893;1248;101882;-84
2023/08/14 01:50:52;;;;;;;7.60;6.80;;;;;;;17.50;79.63;97618.48;107188;1244;99864;-84
2023/08/14 01:53:18;;;;;;;11.00;6.70;;;;;;;17.47;79.66;97618.55;107190;1239;96580;-83
2023/08/14 01:55:45;;;;;;;11.30;7.20;;;;;;;17.47;79.72;97619.58;107205;1255;96788;-84
2023/08/14 01:58:11;;;;;;;9.20;6.70;;;;;;;17.46;79.76;97617.72;107250;1252;96701;-84
2023/08/14 02:00:38;;;;;;;8.20;6.80;;;;;;;17.50;79.76;97616.84;107294;1244;97903;-83
2023/08/14 02:03:04;;;;;;;9.70;7.10;;;;;;;17.52;79.62;97617.08;107156;1245;97430;-83
2023/08/14 02:05:31;;;;;;;8.20;7.20;;;;;;;17.55;79.61;97618.27;107087;1244;96664;-84
2023/08/14 02:07:57;;;;;;;10.90;7.20;;;;;;;17.58;79.73;97616.80;107209;1255;97016;-84
2023/08/14 02:10:24;;;;;;;9.30;6.80;;;;;;;17.60;79.60;97614.87;107253;1239;97724;-84
2023/08/14 02:12:50;;;;;;;7.10;6.40;;;;;;;17.60;79.72;97616.34;107232;1255;97680;-85
2023/08/14 02:15:17;;;;;;;6.70;6.10;;;;;;;17.56;79.60;97616.10;107324;1240;97678;-83
2023/08/14 02:17:43;;;;;;;9.10;6.70;;;;;;;17.54;79.78;97616.79;107563;1247;97484;-84
2023/08/14 02:20:09;;;;;;;7.70;6.90;;;;;;;17.58;79.86;97617.23;107889;1239;96587;-84
2023/08/14 02:22:36;;;;;;;9.60;7.20;;;;;;;17.60;79.94;97613.61;107772;1247;96878;-84
2023/08/14 02:25:02;;;;;;;8.00;6.30;;;;;;;17.62;79.92;97614.79;107770;1246;97367;-76
2023/08/14 02:27:28;;;;;;;7.70;6.90;;;;;;;17.61;79.78;97617.02;107346;1253;97373;-76
2023/08/14 02:29:55;;;;;;;7.80;7.00;;;;;;;17.63;79.82;97624.16;107373;1238;97467;-76
2023/08/14 02:32:21;;;;;;;8.40;7.30;;;;;;;17.65;79.82;97622.52;107332;1242;96730;-76
2023/08/14 02:34:50;;;;;;;7.90;7.10;;;;;;;17.64;79.64;97618.27;107319;1254;96696;-76
2023/08/14 02:37:18;;;;;;;7.90;6.90;;;;;;;17.61;79.73;97618.92;107335;1250;96693;-76
2023/08/14 02:39:44;;;;;;;8.40;7.50;;;;;;;17.58;79.78;97615.54;107078;1248;100474;-76
2023/08/14 02:42:15;;;;;;;10.40;7.60;;;;;;;17.59;79.68;97617.30;107318;1243;97489;-75
2023/08/14 02:44:42;;;;;;;10.10;7.10;;;;;;;17.58;79.83;97615.70;107018;1244;96895;-87
2023/08/14 02:47:08;;;;;;;9.40;7.80;;;;;;;17.60;79.73;97612.09;107079;1254;97572;-87
2023/08/14 02:49:34;;;;;;;8.20;6.90;;;;;;;17.64;79.66;97610.99;107054;1245;97553;-87
2023/08/14 02:52:00;;;;;;;8.60;7.20;;;;;;;17.66;79.72;97609.06;106926;1245;97855;-87
2023/08/14 02:54:27;;;;;;;8.50;7.20;;;;;;;17.68;79.76;97607.46;106886;1254;97468;-87
2023/08/14 02:56:54;;;;;;;7.40;6.70;;;;;;;17.68;79.86;97607.84;106953;1246;98108;-86
2023/08/14 02:59:20;;;;;;;12.20;7.60;;;;;;;17.68;79.88;97609.70;107053;1249;98016;-86
2023/08/14 03:01:46;;;;;;;8.90;7.10;;;;;;;17.68;79.59;97608.01;107254;1245;96646;-86
2023/08/14 03:04:14;;;;;;;7.10;6.40;;;;;;;17.66;79.60;97609.77;107192;1246;97368;-76
2023/08/14 03:06:42;;;;;;;9.30;6.70;;;;;;;17.64;79.66;97609.86;107299;1245;97007;-76
2023/08/14 03:09:08;;;;;;;8.90;7.30;;;;;;;17.64;79.77;97613.84;107226;1252;96677;-75
2023/08/14 03:11:34;;;;;;;7.80;6.20;;;;;;;17.64;79.83;97614.48;107265;1244;96575;-76
2023/08/14 03:14:01;;;;;;;14.40;6.80;;;;;;;17.62;79.83;97615.99;107227;1244;97839;-75
2023/08/14 03:16:27;;;;;;;9.20;6.80;;;;;;;17.61;79.77;97617.08;107325;1245;97834;-76
2023/08/14 03:18:53;;;;;;;9.70;6.80;;;;;;;17.59;79.79;97620.96;107312;1244;102047;-76
2023/08/14 03:21:19;;;;;;;8.10;6.10;;;;;;;17.56;79.94;97617.63;107314;1242;96995;-76
2023/08/14 03:23:47;;;;;;;10.20;6.50;;;;;;;17.49;79.88;97617.77;107373;1243;96791;-87
2023/08/14 03:26:14;;;;;;;8.90;6.70;;;;;;;17.47;79.91;97624.00;107322;1251;96806;-85
2023/08/14 03:28:40;;;;;;;10.00;6.70;;;;;;;17.43;80.04;97629.83;107575;1242;97874;-87
2023/08/14 03:31:07;;;;;;;8.10;6.70;;;;;;;17.42;80.04;97631.17;107584;1242;100376;-88
2023/08/14 03:33:33;;;;;;;8.80;7.20;;;;;;;17.40;79.98;97635.40;107764;1241;96881;-85
2023/08/14 03:35:59;;;;;;;8.60;6.70;;;;;;;17.44;80.22;97635.58;107757;1249;97115;-85
2023/08/14 03:38:26;;;;;;;8.70;7.80;;;;;;;17.46;80.30;97636.11;107450;1242;97800;-83
2023/08/14 03:40:52;;;;;;;10.30;6.80;;;;;;;17.43;80.35;97632.23;107297;1245;100043;-83
2023/08/14 03:43:18;;;;;;;8.00;6.70;;;;;;;17.36;80.37;97631.79;107175;1247;96659;-84
2023/08/14 03:45:45;;;;;;;10.80;6.90;;;;;;;17.28;80.38;97629.80;107295;1253;96637;-84
2023/08/14 03:48:11;;;;;;;9.90;7.20;;;;;;;17.29;80.45;97635.11;107370;1254;96621;-84
2023/08/14 03:50:37;;;;;;;7.00;6.30;;;;;;;17.32;80.63;97630.64;107289;1245;101225;-84
2023/08/14 03:53:04;;;;;;;10.20;7.00;;;;;;;17.36;80.52;97629.04;107353;1250;96703;-84
2023/08/14 03:55:30;;;;;;;9.10;6.60;;;;;;;17.40;80.42;97630.48;107204;1252;97560;-85
2023/08/14 03:57:57;;;;;;;10.40;7.30;;;;;;;17.45;80.48;97630.30;107378;1253;96713;-84
2023/08/14 04:00:23;;;;;;;8.80;7.20;;;;;;;17.48;80.55;97631.73;107383;1242;101325;-81
2023/08/14 04:02:50;;;;;;;8.60;7.70;;;;;;;17.51;80.57;97633.79;107344;1254;96615;-80
2023/08/14 04:05:16;;;;;;;10.60;6.80;;;;;;;17.54;80.41;97636.16;107435;1244;97297;-80
2023/08/14 04:07:42;;;;;;;7.80;7.10;;;;;;;17.58;80.40;97638.91;107528;1246;96750;-81
2023/08/14 04:10:09;;;;;;;8.40;6.80;;;;;;;17.57;80.59;97640.42;107626;1246;101197;-80
2023/08/14 04:12:35;;;;;;;9.60;6.90;;;;;;;17.58;80.49;97643.05;107381;1245;97859;-80
2023/08/14 04:15:15;;;;;;;9.30;7.40;;;;;;;17.61;80.58;97644.41;107268;1245;97812;-80
2023/08/14 04:17:42;;;;;;;9.10;7.10;;;;;;;17.62;80.73;97646.83;107071;1245;97877;-80
2023/08/14 04:20:09;;;;;;;11.30;7.10;;;;;;;17.60;80.84;97650.68;107317;1253;96760;-80
2023/08/14 04:22:35;;;;;;;9.00;7.20;;;;;;;17.63;80.84;97649.95;106961;1249;98153;-80
2023/08/14 04:25:02;;;;;;;13.00;8.60;;;;;;;17.66;80.81;97651.54;106954;1248;96642;-81
2023/08/14 04:27:28;;;;;;;12.20;10.60;;;;;;;17.65;80.85;97649.16;107021;1258;97631;-80
2023/08/14 04:29:54;;;;;;;12.80;9.20;;;;;;;17.60;80.66;97650.73;106937;1247;102309;-80
2023/08/14 04:32:20;;;;;;;9.80;8.80;;;;;;;17.59;80.64;97657.98;106967;1256;97488;-80
2023/08/14 04:34:47;;;;;;;9.70;8.50;;;;;;;17.57;80.81;97659.97;106966;1254;97864;-80
2023/08/14 04:37:13;;;;;;;8.20;6.90;;;;;;;17.59;81.04;97668.19;107029;1249;96552;-80
2023/08/14 04:39:39;;;;;;;10.70;7.60;;;;;;;17.59;81.14;97664.48;106963;1247;101077;-84
2023/08/14 04:42:06;;;;;;;11.40;7.20;;;;;;;17.61;81.09;97663.05;106965;1247;97902;-80
2023/08/14 04:44:32;;;;;;;7.90;7.10;;;;;;;17.66;81.14;97658.33;107187;1248;96790;-80
2023/08/14 04:46:58;;;;;;;9.40;7.60;;;;;;;17.67;81.28;97652.93;107384;1244;96763;-81
2023/08/14 04:49:25;;;;;;;10.50;7.30;;;;;;;17.67;81.24;97657.39;107355;1252;100640;-80
2023/08/14 04:51:51;;;;;;;7.70;6.90;;;;;;;17.67;81.26;97659.74;107351;1242;97112;-80
2023/08/14 04:54:17;;;;;;;11.00;7.00;;;;;;;17.66;81.42;97661.48;107583;1244;97082;-80
2023/08/14 04:56:44;;;;;;;8.30;7.50;;;;;;;17.65;81.34;97662.94;107904;1247;97442;-80
2023/08/14 04:59:10;;;;;;;14.30;7.40;;;;;;;17.65;81.36;97660.20;107809;1246;102079;-80
2023/08/14 05:01:36;;;;;;;12.00;7.10;;;;;;;17.67;81.18;97661.83;107768;1241;97217;-85
2023/08/14 05:04:03;;;;;;;9.80;7.90;;;;;;;17.70;81.41;97657.35;107905;1241;97902;-84
2023/08/14 05:06:29;;;;;;;9.20;8.10;;;;;;;17.75;81.27;97659.98;107942;1241;96553;-84
2023/08/14 05:08:56;;;;;;;10.90;7.40;;;;;;;17.80;81.39;97659.13;107635;1238;332539;-83
2023/08/14 05:11:22;;;;;;;9.70;7.30;;;;;;;17.87;81.57;97655.96;107735;1235;97600;-85
2023/08/14 05:13:48;;;;;;;14.00;9.30;;;;;;;17.90;81.73;97654.36;107543;1241;97803;-85
2023/08/14 05:16:14;;;;;;;19.30;15.10;;;;;;;17.96;81.85;97656.85;107719;1241;97057;-85
2023/08/14 05:18:41;;;;;;;46.50;12.60;;;;;;;18.03;81.77;97656.66;107881;1246;101562;-84
2023/08/14 05:21:07;;;;;;;15.00;10.40;;;;;;;18.08;81.51;97651.39;107850;1239;97102;-80
2023/08/14 05:23:33;;;;;;;16.50;8.90;;;;;;;18.11;81.67;97648.14;107837;1247;97469;-80
2023/08/14 05:26:00;;;;;;;12.30;8.10;;;;;;;18.16;81.49;97649.67;107917;1241;97378;-80
2023/08/14 05:28:26;;;;;;;8.50;7.30;;;;;;;18.21;81.67;97650.62;107917;1247;102196;-80
2023/08/14 05:30:52;;;;;;;13.90;7.40;;;;;;;18.27;81.38;97655.38;107930;1235;96551;-80
2023/08/14 05:33:18;;;;;;;9.40;7.90;;;;;;;18.32;81.42;97654.64;107924;1240;97803;-80
2023/08/14 05:35:48;;;;;;;9.20;7.60;;;;;;;18.40;81.31;97650.46;107931;1241;96557;-80
2023/08/14 05:38:16;;;;;;;11.30;8.10;;;;;;;18.48;81.23;97650.50;107663;1247;100668;-80
2023/08/14 05:40:42;;;;;;;8.90;7.50;;;;;;;18.56;81.29;97653.66;107381;1245;98127;-80
2023/08/14 05:43:10;;;;;;;14.30;7.80;;;;;;;18.62;81.36;97650.25;107445;1238;98053;-80
2023/08/14 05:45:45;;;;;;;9.10;7.70;;;;;;;18.68;81.55;97651.80;107541;1244;96565;-80
2023/08/14 05:48:13;;;;;;;10.20;7.40;;;;;;;18.76;81.46;97654.34;107270;1247;97110;-80
2023/08/14 05:50:40;;;;;;;8.70;7.90;;;;;;;18.84;81.52;97655.63;107448;1244;101083;-80
2023/08/14 05:53:08;;;;;;;8.50;7.10;;;;;;;18.93;81.64;97657.58;107429;1244;96985;-80
2023/08/14 05:55:37;;;;;;;8.10;7.30;;;;;;;19.01;81.52;97653.28;107416;1251;100054;-85
2023/08/14 05:58:04;;;;;;;10.00;7.30;;;;;;;19.09;81.77;97647.98;106951;1254;97595;-84
2023/08/14 06:00:31;;;;;;;7.60;6.80;;;;;;;19.17;81.57;97642.75;107413;1254;96664;-84
2023/08/14 06:02:57;;;;;;;8.20;6.70;;;;;;;19.26;81.71;97644.02;107444;1245;96598;-84
2023/08/14 06:05:24;;;;;;;8.90;6.60;;;;;;;19.33;81.45;97644.85;107447;1250;96632;-84
2023/08/14 06:07:52;;;;;;;8.50;6.50;;;;;;;19.44;80.96;97648.45;107464;1248;96675;-84
2023/08/14 06:10:19;;;;;;;8.80;6.70;;;;;;;19.55;80.86;97651.08;107660;1239;96913;-85
2023/08/14 06:12:48;;;;;;;10.80;6.40;;;;;;;19.64;80.51;97650.48;107390;1244;97152;-84
2023/08/14 06:15:15;;;;;;;8.70;6.80;;;;;;;19.74;80.09;97651.27;107422;1239;96963;-85
2023/08/14 06:17:42;;;;;;;7.20;6.20;;;;;;;19.84;79.96;97654.57;107446;1238;96787;-85
2023/08/14 06:20:10;;;;;;;8.10;6.00;;;;;;;19.93;79.74;97657.19;107362;1248;96578;-85
2023/08/14 06:22:40;;;;;;;7.60;6.30;;;;;;;20.02;79.50;97659.94;107419;1238;96679;-85
2023/08/14 06:25:08;;;;;;;8.30;6.30;;;;;;;20.11;79.13;97658.89;107152;1238;97149;-86
2023/08/14 06:27:35;;;;;;;6.40;5.70;;;;;;;20.26;78.65;97654.67;107525;1250;101206;-85
2023/08/14 06:30:02;;;;;;;6.50;5.80;;;;;;;20.44;78.07;97653.52;107579;1244;97411;-84
2023/08/14 06:32:28;;;;;;;7.50;5.50;;;;;;;20.58;77.62;97653.02;107162;1253;96616;-85
2023/08/14 06:34:54;;;;;;;6.70;5.80;;;;;;;20.70;77.55;97648.52;107362;1251;96719;-82
2023/08/14 06:37:21;;;;;;;5.80;5.00;;;;;;;20.82;77.11;97647.83;107421;1244;97342;-81
2023/08/14 06:39:47;;;;;;;7.80;5.80;;;;;;;20.92;76.45;97650.64;107445;1245;101565;-81
2023/08/14 06:42:13;;;;;;;13.70;7.70;;;;;;;21.02;76.29;97654.98;107403;1245;97106;-81
2023/08/14 06:44:40;;;;;;;8.00;5.80;;;;;;;21.10;75.99;97652.31;107361;1244;97955;-81
2023/08/14 06:47:06;;;;;;;5.90;5.10;;;;;;;21.19;76.19;97648.62;107562;1244;96670;-81
2023/08/14 06:49:32;;;;;;;5.80;4.60;;;;;;;21.29;75.95;97650.17;107429;1245;100399;-80
2023/08/14 06:51:59;;;;;;;7.60;5.40;;;;;;;21.37;75.80;97649.06;107356;1244;97099;-81
2023/08/14 06:54:25;;;;;;;5.00;4.50;;;;;;;21.47;75.64;97647.14;107300;1244;96670;-84
2023/08/14 06:56:51;;;;;;;7.60;5.50;;;;;;;21.58;75.63;97657.20;107444;1251;97593;-86
2023/08/14 06:59:17;;;;;;;5.60;5.10;;;;;;;21.67;75.62;97656.86;107501;1244;101278;-85
2023/08/14 07:01:44;;;;;;;6.00;4.60;;;;;;;21.76;75.51;97655.36;107240;1253;96746;-85
2023/08/14 07:04:11;;;;;;;5.30;4.80;;;;;;;21.85;75.11;97659.95;107315;1251;96656;-85
2023/08/14 07:06:38;;;;;;;6.20;4.70;;;;;;;21.94;74.48;97660.66;107314;1242;96570;-85
2023/08/14 07:09:04;;;;;;;8.20;5.00;;;;;;;22.06;73.62;97660.16;107762;1244;100321;-87
2023/08/14 07:11:36;;;;;;;5.20;4.30;;;;;;;22.20;72.72;97658.75;107747;1238;97308;-87
2023/08/14 07:14:06;;;;;;;5.40;4.70;;;;;;;22.33;71.67;97660.02;107087;1245;97148;-82
2023/08/14 07:16:33;;;;;;;5.40;4.50;;;;;;;22.46;71.00;97660.64;107191;1242;97470;-82
2023/08/14 07:18:59;;;;;;;4.60;4.20;;;;;;;22.59;70.93;97662.02;107242;1253;96714;-82
2023/08/14 07:21:26;;;;;;;5.70;4.10;;;;;;;22.73;70.09;97667.35;107119;1242;96674;-83
2023/08/14 07:23:52;;;;;;;5.80;4.00;;;;;;;22.86;69.23;97669.39;107531;1247;97798;-82
2023/08/14 07:26:19;;;;;;;8.70;4.40;;;;;;;23.00;68.78;97666.17;107649;1241;97163;-82
2023/08/14 07:28:45;;;;;;;5.80;4.10;;;;;;;23.12;69.10;97667.20;107581;1238;97684;-82
2023/08/14 07:31:11;;;;;;;4.50;4.10;;;;;;;23.24;68.82;97666.00;107408;1238;96881;-82
2023/08/14 07:33:38;;;;;;;7.60;4.30;;;;;;;23.39;68.31;97666.77;107668;1244;98014;-83
2023/08/14 07:36:04;;;;;;;4.80;3.90;;;;;;;23.56;68.24;97662.58;107557;1239;97256;-82
2023/08/14 07:38:31;;;;;;;7.00;4.50;;;;;;;23.74;68.00;97664.30;107725;1250;97116;-82
2023/08/14 07:40:57;;;;;;;4.60;4.10;;;;;;;23.94;67.28;97665.98;107637;1241;97607;-81
2023/08/14 07:43:23;;;;;;;5.60;4.00;;;;;;;24.18;65.73;97658.30;107672;1249;97835;-83
2023/08/14 07:45:51;;;;;;;4.70;3.60;;;;;;;24.52;64.78;97658.40;107768;1238;96706;-83
2023/08/14 07:48:17;;;;;;;6.80;3.60;;;;;;;24.93;63.46;97661.96;107938;1241;97826;-83
2023/08/14 07:50:43;;;;;;;5.50;3.50;;;;;;;25.33;62.29;97663.70;107918;1240;96644;-86
2023/08/14 07:53:10;;;;;;;3.60;3.30;;;;;;;25.77;61.46;97664.66;107851;1247;96639;-87
2023/08/14 07:55:37;;;;;;;4.30;3.20;;;;;;;26.29;60.74;97663.31;108073;1244;96676;-85
2023/08/14 07:58:04;;;;;;;5.70;3.60;;;;;;;26.82;59.42;97664.04;107541;1244;102403;-85
2023/08/14 08:00:31;;;;;;;4.10;3.60;;;;;;;27.11;58.22;97663.85;107941;1238;97123;-85
2023/08/14 08:02:57;;;;;;;5.30;4.10;;;;;;;27.20;57.85;97657.15;107930;1247;97816;-85
2023/08/14 08:05:23;;;;;;;6.30;3.60;;;;;;;27.22;56.91;97657.42;107981;1247;97103;-84
2023/08/14 08:07:50;;;;;;;7.50;3.90;;;;;;;27.28;56.40;97656.74;107878;1238;101101;-84
2023/08/14 08:10:16;;;;;;;3.50;3.20;;;;;;;27.36;55.91;97655.21;107853;1238;96679;-86
2023/08/14 08:12:43;;;;;;;3.60;3.30;;;;;;;27.37;55.46;97649.55;107890;1246;96854;-86
2023/08/14 08:15:10;;;;;;;6.40;3.40;;;;;;;27.39;55.20;97651.42;107992;1241;97504;-84
2023/08/14 08:17:36;;;;;;;7.80;4.00;;;;;;;27.52;55.18;97652.98;107950;1241;101205;-85
2023/08/14 08:20:05;;;;;;;7.60;4.10;;;;;;;27.73;55.03;97651.50;107953;1235;96551;-86
2023/08/14 08:22:32;;;;;;;5.40;3.90;;;;;;;27.75;54.50;97653.41;107906;1238;98802;-86
2023/08/14 08:24:58;;;;;;;5.50;4.00;;;;;;;27.71;54.40;97655.45;107897;1244;96882;-87
2023/08/14 08:27:25;;;;;;;6.30;3.80;;;;;;;27.58;53.76;97652.02;107939;1238;96545;-87
2023/08/14 08:29:51;;;;;;;4.10;3.70;;;;;;;27.53;54.42;97656.19;107809;1238;97093;-85
2023/08/14 08:32:17;;;;;;;4.30;3.80;;;;;;;27.64;54.35;97654.16;107882;1238;98970;-81
2023/08/14 08:34:43;;;;;;;6.10;4.00;;;;;;;27.90;54.01;97650.23;107909;1243;96906;-81
2023/08/14 08:37:10;;;;;;;6.00;3.30;;;;;;;28.22;53.20;97649.90;107959;1248;97794;-81
2023/08/14 08:39:36;;;;;;;5.30;4.00;;;;;;;28.59;52.48;97653.49;107978;1245;96770;-81
2023/08/14 08:42:07;;;;;;;6.30;4.10;;;;;;;28.98;51.42;97653.69;107769;1246;99888;-83
2023/08/14 08:44:35;;;;;;;4.70;3.50;;;;;;;29.33;50.86;97656.34;107457;1245;96512;-82
2023/08/14 08:47:07;;;;;;;6.60;3.20;;;;;;;29.69;50.71;97658.40;107934;1241;97019;-83
2023/08/14 08:49:34;;;;;;;;;;;;;;;30.14;49.86;97659.84;107929;1246;101084;-81
2023/08/14 08:52:03;;;;;;;4.70;3.60;;;;;;;30.47;49.42;97660.48;107905;1236;100401;-83
2023/08/14 08:54:30;;;;;;;5.80;3.60;;;;;;;30.78;48.92;97661.68;107484;1240;99527;-81
2023/08/14 08:56:57;;;;;;;4.80;3.60;;;;;;;31.06;48.47;97659.01;107894;1240;96819;-83
2023/08/14 08:59:25;;;;;;;4.40;3.30;;;;;;;31.38;47.40;97659.53;107439;1243;97887;-83
2023/08/14 09:01:52;;;;;;;6.80;3.40;;;;;;;31.65;46.42;97656.89;107928;1235;97481;-84
2023/08/14 09:04:19;;;;;;;5.20;3.60;;;;;;;31.93;45.93;97652.81;107895;1241;96772;-84
2023/08/14 09:06:45;;;;;;;3.60;3.30;;;;;;;32.19;44.95;97656.23;107913;1238;96571;-84
2023/08/14 09:09:13;;;;;;;3.50;3.20;;;;;;;32.39;44.39;97654.70;108260;1240;96691;-85
2023/08/14 09:11:39;;;;;;;4.40;3.20;;;;;;;32.62;44.20;97651.63;108202;1241;96473;-86
2023/08/14 09:14:06;;;;;;;5.50;3.10;;;;;;;32.87;43.81;97645.62;108007;1238;97676;-85
2023/08/14 09:16:32;;;;;;;3.30;2.90;;;;;;;33.10;43.42;97646.25;107500;1243;99365;-82
2023/08/14 09:19:00;;;;;;;4.60;3.40;;;;;;;33.32;43.18;97645.11;107910;1235;96808;-82
2023/08/14 09:21:28;;;;;;;4.50;3.10;;;;;;;33.48;42.74;97640.38;107529;1241;96618;-82
2023/08/14 09:23:55;;;;;;;4.50;3.50;;;;;;;33.60;42.36;97639.69;107949;1244;96981;-82
2023/08/14 09:26:23;;;;;;;5.50;3.30;;;;;;;33.66;41.70;97637.96;107925;1243;96555;-82
2023/08/14 09:28:51;;;;;;;3.60;3.30;;;;;;;33.64;41.38;97634.14;107333;1243;97884;-82
2023/08/14 09:31:17;;;;;;;4.40;3.00;;;;;;;33.64;40.69;97637.96;107974;1238;96808;-82
2023/08/14 09:33:45;;;;;;;6.00;3.40;;;;;;;33.63;40.44;97635.08;107799;1239;96859;-83
2023/08/14 09:36:13;;;;;;;4.00;2.80;;;;;;;33.62;40.09;97635.36;107764;1238;96575;-82
2023/08/14 09:38:39;;;;;;;5.80;3.40;;;;;;;33.65;39.62;97637.52;107814;1243;98285;-83
2023/08/14 09:41:06;;;;;;;4.10;3.20;;;;;;;33.65;39.87;97634.41;107836;1241;96779;-82
2023/08/14 09:43:33;;;;;;;5.10;3.20;;;;;;;33.67;40.19;97631.89;107663;1241;97804;-82
2023/08/14 09:46:02;;;;;;;4.90;2.90;;;;;;;33.67;40.53;97629.42;107702;1248;97688;-83
2023/08/14 09:48:48;;;;;;;3.40;3.10;;;;;;;33.66;40.49;97627.39;107471;1250;97656;-83
2023/08/14 09:51:16;;;;;;;5.50;3.50;;;;;;;33.61;40.52;97627.80;107766;1243;101679;-82
2023/08/14 09:53:57;;;;;;;3.30;2.70;;;;;;;33.55;39.74;97628.27;107720;1238;99056;-83
2023/08/14 09:56:25;;;;;;;5.50;3.20;;;;;;;33.46;39.21;97627.05;107518;1252;96648;-83
2023/08/14 09:58:53;;;;;;;6.10;3.30;;;;;;;33.47;39.10;97623.08;107484;1244;97451;-83
2023/08/14 10:01:21;;;;;;;5.10;2.60;;;;;;;33.47;38.64;97622.20;107665;1241;101133;-83
2023/08/14 10:03:53;;;;;;;3.90;2.50;;;;;;;33.53;38.23;97620.70;107569;1238;100217;-84
2023/08/14 10:06:23;;;;;;;4.30;2.70;;;;;;;33.61;37.37;97616.27;107472;1242;98774;-85
2023/08/14 10:08:56;;;;;;;3.30;2.90;;;;;;;33.66;38.22;97618.52;107398;1246;97875;-86
2023/08/14 10:11:26;;;;;;;3.40;2.60;;;;;;;33.74;37.44;97615.30;107634;1250;97410;-85
2023/08/14 10:13:56;;;;;;;3.40;2.50;;;;;;;33.83;36.53;97616.23;107933;1238;102002;-84
2023/08/14 10:16:27;;;;;;;3.20;2.90;;;;;;;33.93;36.00;97621.05;107256;1247;100662;-85
2023/08/14 10:18:56;;;;;;;6.50;2.70;;;;;;;34.00;35.70;97614.84;107481;1237;99942;-84
2023/08/14 10:21:30;;;;;;;4.60;2.90;;;;;;;33.98;36.13;97611.90;107170;1245;97418;-85
2023/08/14 10:23:59;;;;;;;4.70;2.90;;;;;;;34.01;35.64;97612.87;107938;1235;97072;-85
2023/08/14 10:26:25;;;;;;;4.60;3.20;;;;;;;34.04;35.98;97609.91;107533;1242;101075;-82
2023/08/14 10:28:52;;;;;;;5.60;3.10;;;;;;;34.01;35.86;97608.87;107931;1239;97788;-83
2023/08/14 10:31:20;;;;;;;5.60;3.20;;;;;;;33.94;35.97;97604.59;107873;1238;96562;-82
2023/08/14 10:33:46;;;;;;;5.50;3.30;;;;;;;33.97;36.63;97604.70;107414;1244;96998;-83
2023/08/14 10:36:20;;;;;;;7.30;3.80;;;;;;;34.01;36.58;97602.62;107872;1238;97020;-83
2023/08/14 10:38:48;;;;;;;6.40;3.20;;;;;;;34.05;37.29;97599.46;107112;1241;101966;-84
2023/08/14 10:41:18;;;;;;;5.20;3.30;;;;;;;34.15;37.60;97601.55;107405;1239;100337;-84
2023/08/14 10:43:51;;;;;;;4.60;2.90;;;;;;;34.20;37.07;97595.77;107261;1245;98947;-83
2023/08/14 10:46:17;;;;;;;7.40;3.50;;;;;;;34.23;36.59;97593.77;107334;1255;96594;-83
2023/08/14 10:48:48;;;;;;;5.30;3.60;;;;;;;34.26;36.75;97592.73;107354;1246;96725;-83
2023/08/14 10:51:20;;;;;;;7.20;3.60;;;;;;;34.28;36.68;97589.61;106978;1240;101178;-84
2023/08/14 10:53:47;;;;;;;4.80;3.20;;;;;;;34.25;36.84;97587.80;107065;1254;99892;-84
2023/08/14 10:56:13;;;;;;;4.50;3.40;;;;;;;34.18;36.62;97588.42;107374;1242;96747;-83
2023/08/14 10:58:47;;;;;;;4.00;3.50;;;;;;;34.09;36.89;97581.93;107404;1247;97897;-82
2023/08/14 11:01:14;;;;;;;6.50;3.40;;;;;;;34.09;37.23;97578.66;107326;1244;97497;-84
2023/08/14 11:04:05;;;;;;;7.10;3.80;;;;;;;34.12;37.02;97575.80;107412;1239;102055;-85
2023/08/14 11:06:57;;;;;;;6.10;3.20;;;;;;;34.15;37.60;97576.43;107462;1244;100245;-84
2023/08/14 11:09:23;;;;;;;4.90;3.40;;;;;;;34.19;37.45;97574.12;107381;1246;99800;-85
2023/08/14 11:11:49;;;;;;;4.20;3.50;;;;;;;34.20;37.29;97572.78;107912;1247;97244;-84
2023/08/14 11:14:16;;;;;;;5.40;3.80;;;;;;;34.21;37.01;97570.34;107885;1238;97376;-84
2023/08/14 11:16:47;;;;;;;6.60;3.10;;;;;;;34.27;36.59;97568.92;107980;1238;97477;-84
2023/08/14 11:19:15;;;;;;;4.00;3.60;;;;;;;34.21;36.40;97569.48;107887;1240;98693;-85
2023/08/14 11:21:41;;;;;;;5.00;3.50;;;;;;;34.07;36.23;97570.86;107749;1235;96546;-85
2023/08/14 11:24:10;;;;;;;4.50;3.50;;;;;;;33.85;36.31;97572.19;107754;1246;97455;-85